WJA4201 CYUL-MDLR
Flight info
| Callsign | WJA4201 |
|---|---|
| Flight time | 4h 10m |
| Altitude | 34000 |
| Route | FAWNS DCT BUGSY DCT PONCT Q437 CRPLR DCT BGBRD Q101 SKARP Y313 IDOLS DCT RROOO/N0466F360 Y323 CARPX Y307 NUCAR/N0471F350 Y374 RUMFO Y441 JUELE DCT PETRI PETRI2D |
| Aircraft | B738/M-SDE2E3FGHIRWXY/LB1 |
Departure
| Time | 2026-05-04 16:35 |
|---|---|
| Airport | Montreal / Pierre Elliott Trudeau International Airport (CYUL) |
Arrival
| Time | 2026-05-04 20:45 |
|---|---|
| Airport | Casa De Campo International Airport (MDLR) |
| Time | Latitude | Longitude | Altitude | Speed | Heading |
|---|---|---|---|---|---|
| 2026-05-04 15:47 | 45.45930 | -73.75044 | 112 ft | 0 kts | 176° |
| 2026-05-04 16:21 | 45.45932 | -73.75045 | 115 ft | 3 kts | 177° |
| 2026-05-04 16:22 | 45.45984 | -73.75045 | 113 ft | 3 kts | 176° |
| 2026-05-04 16:22 | 45.46008 | -73.75125 | 114 ft | 3 kts | 86° |
| 2026-05-04 16:23 | 45.46008 | -73.75131 | 114 ft | 1 kts | 87° |
| 2026-05-04 16:28 | 45.45980 | -73.74921 | 113 ft | 13 kts | 97° |
| 2026-05-04 16:28 | 45.45980 | -73.74508 | 115 ft | 16 kts | 72° |
| 2026-05-04 16:29 | 45.46232 | -73.73936 | 113 ft | 23 kts | 42° |
| 2026-05-04 16:30 | 45.46698 | -73.73336 | 114 ft | 36 kts | 43° |
| 2026-05-04 16:31 | 45.47040 | -73.72877 | 114 ft | 31 kts | 43° |
| 2026-05-04 16:31 | 45.47476 | -73.72306 | 114 ft | 26 kts | 43° |
| 2026-05-04 16:32 | 45.47795 | -73.71890 | 113 ft | 11 kts | 46° |
| 2026-05-04 16:33 | 45.47754 | -73.71723 | 113 ft | 10 kts | 133° |
| 2026-05-04 16:33 | 45.47651 | -73.71673 | 113 ft | 9 kts | 220° |
| 2026-05-04 16:34 | 45.47099 | -73.72396 | 111 ft | 117 kts | 222° |
| 2026-05-04 16:34 | 45.46360 | -73.73365 | 133 ft | 168 kts | 223° |
| 2026-05-04 16:35 | 45.43747 | -73.76650 | 2660 ft | 166 kts | 226° |
| 2026-05-04 16:35 | 45.40340 | -73.79619 | 3833 ft | 225 kts | 207° |
| 2026-05-04 16:36 | 45.38837 | -73.80463 | 4289 ft | 239 kts | 208° |
| 2026-05-04 16:36 | 45.35616 | -73.82417 | 5515 ft | 257 kts | 210° |
| 2026-05-04 16:37 | 45.32408 | -73.84566 | 7288 ft | 256 kts | 213° |
| 2026-05-04 16:37 | 45.30810 | -73.85692 | 8113 ft | 257 kts | 214° |
| 2026-05-04 16:37 | 45.27579 | -73.88029 | 9711 ft | 262 kts | 215° |
| 2026-05-04 16:38 | 45.24199 | -73.90533 | 10526 ft | 294 kts | 215° |
| 2026-05-04 16:39 | 45.18189 | -73.95016 | 11091 ft | 355 kts | 214° |
| 2026-05-04 16:39 | 45.13705 | -73.98334 | 12187 ft | 370 kts | 214° |
| 2026-05-04 16:40 | 45.09079 | -74.01758 | 13386 ft | 381 kts | 214° |
| 2026-05-04 16:40 | 45.04331 | -74.05278 | 14545 ft | 388 kts | 213° |
| 2026-05-04 16:41 | 44.99431 | -74.08657 | 15735 ft | 400 kts | 205° |
| 2026-05-04 16:41 | 44.90960 | -74.10659 | 17488 ft | 419 kts | 193° |
| 2026-05-04 16:42 | 44.82164 | -74.12241 | 18971 ft | 430 kts | 193° |
| 2026-05-04 16:43 | 44.76170 | -74.13373 | 19842 ft | 438 kts | 193° |
| 2026-05-04 16:43 | 44.70000 | -74.13895 | 20681 ft | 456 kts | 179° |
| 2026-05-04 16:43 | 44.66836 | -74.13366 | 21130 ft | 460 kts | 177° |
| 2026-05-04 16:44 | 44.53985 | -74.10990 | 22717 ft | 474 kts | 177° |
| 2026-05-04 16:45 | 44.47382 | -74.09842 | 23425 ft | 481 kts | 177° |
| 2026-05-04 16:46 | 44.37350 | -74.08140 | 24483 ft | 486 kts | 177° |
| 2026-05-04 16:46 | 44.30600 | -74.06999 | 25110 ft | 491 kts | 177° |
| 2026-05-04 16:47 | 44.23817 | -74.05855 | 25691 ft | 496 kts | 177° |
| 2026-05-04 16:47 | 44.16940 | -74.04694 | 26330 ft | 500 kts | 177° |
| 2026-05-04 16:48 | 44.06524 | -74.02942 | 27276 ft | 504 kts | 177° |
| 2026-05-04 16:48 | 44.03062 | -74.02359 | 27831 ft | 499 kts | 177° |
| 2026-05-04 16:49 | 43.96183 | -74.01206 | 28661 ft | 498 kts | 177° |
| 2026-05-04 16:49 | 43.89289 | -74.00056 | 29381 ft | 498 kts | 177° |
| 2026-05-04 16:50 | 43.82432 | -73.98911 | 30333 ft | 492 kts | 177° |
| 2026-05-04 16:50 | 43.75684 | -73.97790 | 30872 ft | 493 kts | 178° |
| 2026-05-04 16:51 | 43.68860 | -73.96660 | 31456 ft | 493 kts | 178° |
| 2026-05-04 16:51 | 43.65461 | -73.96097 | 31798 ft | 491 kts | 178° |
| 2026-05-04 16:51 | 43.58678 | -73.94976 | 32367 ft | 491 kts | 178° |
| 2026-05-04 16:52 | 43.51885 | -73.93853 | 32982 ft | 491 kts | 178° |
| 2026-05-04 16:52 | 43.48496 | -73.93296 | 33312 ft | 489 kts | 178° |
| 2026-05-04 16:53 | 43.41752 | -73.92188 | 33872 ft | 488 kts | 178° |
| 2026-05-04 16:54 | 43.28234 | -73.89974 | 33843 ft | 487 kts | 178° |
| 2026-05-04 16:55 | 43.08218 | -73.86713 | 33852 ft | 481 kts | 178° |
| 2026-05-04 16:56 | 42.92699 | -73.84201 | 33862 ft | 483 kts | 178° |
| 2026-05-04 16:57 | 42.82656 | -73.82581 | 33834 ft | 485 kts | 178° |
| 2026-05-04 16:58 | 42.69203 | -73.81074 | 33850 ft | 483 kts | 185° |
| 2026-05-04 17:00 | 42.49108 | -73.81330 | 33860 ft | 482 kts | 185° |
| 2026-05-04 17:01 | 42.32401 | -73.81334 | 33876 ft | 478 kts | 185° |
| 2026-05-04 17:02 | 42.19111 | -73.81345 | 33882 ft | 476 kts | 185° |
| 2026-05-04 17:03 | 42.09186 | -73.81353 | 33883 ft | 475 kts | 185° |
| 2026-05-04 17:03 | 41.99275 | -73.81361 | 33890 ft | 474 kts | 185° |
| 2026-05-04 17:04 | 41.86116 | -73.81372 | 33823 ft | 474 kts | 185° |
| 2026-05-04 17:05 | 41.72881 | -73.81384 | 33910 ft | 477 kts | 185° |
| 2026-05-04 17:06 | 41.62862 | -73.81392 | 33916 ft | 482 kts | 184° |
| 2026-05-04 17:07 | 41.53912 | -73.81423 | 33902 ft | 483 kts | 187° |
| 2026-05-04 17:07 | 41.49545 | -73.82224 | 33912 ft | 475 kts | 199° |
| 2026-05-04 17:07 | 41.46420 | -73.83564 | 33910 ft | 469 kts | 207° |
| 2026-05-04 17:08 | 41.37332 | -73.88384 | 33926 ft | 468 kts | 207° |
| 2026-05-04 17:09 | 41.31267 | -73.91544 | 33929 ft | 468 kts | 206° |
| 2026-05-04 17:09 | 41.25187 | -73.94662 | 33920 ft | 467 kts | 206° |
| 2026-05-04 17:10 | 41.10080 | -74.02369 | 33919 ft | 464 kts | 206° |
| 2026-05-04 17:11 | 41.04050 | -74.05434 | 33930 ft | 464 kts | 206° |
| 2026-05-04 17:12 | 40.95059 | -74.09993 | 33950 ft | 464 kts | 206° |
| 2026-05-04 17:13 | 40.80329 | -74.18459 | 33951 ft | 453 kts | 221° |
| 2026-05-04 17:14 | 40.71377 | -74.29768 | 33946 ft | 447 kts | 230° |
| 2026-05-04 17:15 | 40.64720 | -74.38373 | 33945 ft | 447 kts | 230° |
| 2026-05-04 17:16 | 40.55778 | -74.49821 | 33948 ft | 449 kts | 229° |
| 2026-05-04 17:17 | 40.46822 | -74.61246 | 33949 ft | 450 kts | 229° |
| 2026-05-04 17:17 | 40.38863 | -74.67962 | 33967 ft | 468 kts | 202° |
| 2026-05-04 17:18 | 40.35684 | -74.69000 | 33981 ft | 472 kts | 196° |
| 2026-05-04 17:19 | 40.22791 | -74.72300 | 33963 ft | 470 kts | 196° |
| 2026-05-04 17:20 | 40.10000 | -74.75724 | 33970 ft | 468 kts | 197° |
| 2026-05-04 17:20 | 40.00440 | -74.78301 | 33990 ft | 467 kts | 197° |
| 2026-05-04 17:21 | 39.87741 | -74.81705 | 33978 ft | 465 kts | 197° |
| 2026-05-04 17:22 | 39.81402 | -74.83399 | 33989 ft | 465 kts | 197° |
| 2026-05-04 17:23 | 39.68773 | -74.86766 | 33992 ft | 464 kts | 197° |
| 2026-05-04 17:24 | 39.59270 | -74.89306 | 33995 ft | 464 kts | 199° |
| 2026-05-04 17:24 | 39.50781 | -74.94499 | 34019 ft | 449 kts | 218° |
| 2026-05-04 17:25 | 39.48142 | -74.96669 | 33986 ft | 450 kts | 218° |
| 2026-05-04 17:26 | 39.37497 | -75.05230 | 34000 ft | 451 kts | 217° |
| 2026-05-04 17:27 | 39.24907 | -75.16995 | 33999 ft | 443 kts | 229° |
| 2026-05-04 17:28 | 39.15821 | -75.27797 | 33986 ft | 445 kts | 227° |
| 2026-05-04 17:29 | 39.01576 | -75.43110 | 33982 ft | 458 kts | 210° |
| 2026-05-04 17:30 | 38.92053 | -75.45627 | 33994 ft | 474 kts | 191° |
| 2026-05-04 17:31 | 38.85489 | -75.46408 | 34005 ft | 473 kts | 191° |
| 2026-05-04 17:32 | 38.69097 | -75.48669 | 34016 ft | 474 kts | 192° |
| 2026-05-04 17:33 | 38.55953 | -75.50436 | 34022 ft | 475 kts | 192° |
| 2026-05-04 17:34 | 38.42830 | -75.52202 | 34003 ft | 476 kts | 192° |
| 2026-05-04 17:35 | 38.33228 | -75.54579 | 34035 ft | 460 kts | 209° |
| 2026-05-04 17:35 | 38.27772 | -75.58587 | 34039 ft | 449 kts | 221° |
| 2026-05-04 17:36 | 38.22655 | -75.63138 | 34004 ft | 449 kts | 221° |
| 2026-05-04 17:36 | 38.17520 | -75.67659 | 34024 ft | 449 kts | 221° |
| 2026-05-04 17:37 | 38.12365 | -75.72150 | 34029 ft | 449 kts | 220° |
| 2026-05-04 17:37 | 38.07206 | -75.76621 | 34032 ft | 449 kts | 220° |
| 2026-05-04 17:38 | 38.02047 | -75.81085 | 34001 ft | 449 kts | 220° |
| 2026-05-04 17:38 | 37.96891 | -75.85538 | 34027 ft | 447 kts | 220° |
| 2026-05-04 17:39 | 37.89215 | -75.92156 | 34040 ft | 446 kts | 220° |
| 2026-05-04 17:39 | 37.84082 | -75.96573 | 34036 ft | 446 kts | 220° |
| 2026-05-04 17:40 | 37.78956 | -76.00976 | 34033 ft | 444 kts | 220° |
| 2026-05-04 17:40 | 37.73848 | -76.05356 | 34033 ft | 443 kts | 220° |
| 2026-05-04 17:41 | 37.68752 | -76.09720 | 34035 ft | 442 kts | 220° |
| 2026-05-04 17:41 | 37.63665 | -76.14058 | 34036 ft | 442 kts | 218° |
| 2026-05-04 17:42 | 37.57981 | -76.17259 | 34034 ft | 456 kts | 201° |
| 2026-05-04 17:42 | 37.51682 | -76.18741 | 34038 ft | 461 kts | 195° |
| 2026-05-04 17:43 | 37.45348 | -76.20068 | 34041 ft | 461 kts | 196° |
| 2026-05-04 17:43 | 37.40083 | -76.21201 | 34040 ft | 462 kts | 196° |
| 2026-05-04 17:44 | 37.32730 | -76.22820 | 34027 ft | 461 kts | 196° |
| 2026-05-04 17:44 | 37.26411 | -76.24223 | 34035 ft | 460 kts | 196° |
| 2026-05-04 17:45 | 37.21167 | -76.25386 | 34036 ft | 460 kts | 196° |
| 2026-05-04 17:45 | 37.14866 | -76.26781 | 34008 ft | 460 kts | 197° |
| 2026-05-04 17:46 | 37.08579 | -76.28167 | 34028 ft | 457 kts | 197° |
| 2026-05-04 17:46 | 37.02324 | -76.29544 | 34032 ft | 456 kts | 197° |
| 2026-05-04 17:47 | 36.96087 | -76.30917 | 34072 ft | 455 kts | 197° |
| 2026-05-04 17:47 | 36.89863 | -76.32283 | 34057 ft | 453 kts | 198° |
| 2026-05-04 17:48 | 36.83663 | -76.33642 | 34064 ft | 451 kts | 198° |
| 2026-05-04 17:48 | 36.77489 | -76.34994 | 34052 ft | 450 kts | 198° |
| 2026-05-04 17:49 | 36.71326 | -76.36341 | 34070 ft | 449 kts | 198° |
| 2026-05-04 17:49 | 36.65179 | -76.37682 | 34056 ft | 447 kts | 199° |
| 2026-05-04 17:50 | 36.59054 | -76.39016 | 34060 ft | 447 kts | 199° |
| 2026-05-04 17:50 | 36.52933 | -76.40348 | 34062 ft | 446 kts | 199° |
| 2026-05-04 17:51 | 36.46853 | -76.41669 | 34065 ft | 447 kts | 199° |
| 2026-05-04 17:51 | 36.40732 | -76.42996 | 34067 ft | 446 kts | 199° |
| 2026-05-04 17:52 | 36.34604 | -76.44323 | 34072 ft | 447 kts | 199° |
| 2026-05-04 17:52 | 36.28469 | -76.45649 | 34074 ft | 448 kts | 199° |
| 2026-05-04 17:53 | 36.22329 | -76.46974 | 34083 ft | 448 kts | 199° |
| 2026-05-04 17:53 | 36.16184 | -76.48296 | 34081 ft | 448 kts | 199° |
| 2026-05-04 17:54 | 36.10044 | -76.49617 | 34091 ft | 448 kts | 199° |
| 2026-05-04 17:54 | 36.03905 | -76.50935 | 34089 ft | 448 kts | 199° |
| 2026-05-04 17:55 | 35.97762 | -76.52253 | 34037 ft | 448 kts | 198° |
| 2026-05-04 17:55 | 35.91638 | -76.53576 | 34084 ft | 445 kts | 200° |
| 2026-05-04 17:56 | 35.85978 | -76.56101 | 34094 ft | 426 kts | 215° |
| 2026-05-04 17:56 | 35.80733 | -76.59410 | 34078 ft | 426 kts | 215° |
| 2026-05-04 17:57 | 35.75441 | -76.62714 | 34084 ft | 427 kts | 214° |
| 2026-05-04 17:57 | 35.70138 | -76.65986 | 34078 ft | 426 kts | 214° |
| 2026-05-04 17:58 | 35.64832 | -76.69245 | 34087 ft | 426 kts | 214° |
| 2026-05-04 17:58 | 35.59523 | -76.72499 | 34094 ft | 426 kts | 214° |
| 2026-05-04 17:59 | 35.54212 | -76.75750 | 34092 ft | 426 kts | 214° |
| 2026-05-04 18:00 | 35.46261 | -76.80609 | 34084 ft | 426 kts | 213° |
| 2026-05-04 18:00 | 35.40960 | -76.83844 | 34094 ft | 426 kts | 213° |
| 2026-05-04 18:01 | 35.35651 | -76.87077 | 34094 ft | 426 kts | 213° |
| 2026-05-04 18:01 | 35.30342 | -76.90308 | 34094 ft | 427 kts | 213° |
| 2026-05-04 18:02 | 35.22393 | -76.95145 | 34095 ft | 427 kts | 213° |
| 2026-05-04 18:02 | 35.17112 | -76.98450 | 34096 ft | 427 kts | 214° |
| 2026-05-04 18:03 | 35.11829 | -77.01773 | 34100 ft | 427 kts | 214° |
| 2026-05-04 18:03 | 35.06535 | -77.05091 | 34102 ft | 427 kts | 214° |
| 2026-05-04 18:04 | 35.01241 | -77.08397 | 34095 ft | 427 kts | 214° |
| 2026-05-04 18:05 | 34.93308 | -77.13339 | 34107 ft | 427 kts | 214° |
| 2026-05-04 18:05 | 34.88017 | -77.16630 | 34105 ft | 427 kts | 214° |
| 2026-05-04 18:06 | 34.80077 | -77.21560 | 34105 ft | 426 kts | 213° |
| 2026-05-04 18:06 | 34.74792 | -77.24834 | 34104 ft | 427 kts | 213° |
| 2026-05-04 18:07 | 34.69534 | -77.28089 | 34114 ft | 427 kts | 213° |
| 2026-05-04 18:07 | 34.64235 | -77.31363 | 34111 ft | 428 kts | 213° |
| 2026-05-04 18:08 | 34.58923 | -77.34642 | 34112 ft | 428 kts | 213° |
| 2026-05-04 18:08 | 34.53613 | -77.37914 | 34107 ft | 428 kts | 213° |
| 2026-05-04 18:09 | 34.42145 | -77.42374 | 34130 ft | 444 kts | 195° |
| 2026-05-04 18:10 | 34.36028 | -77.43506 | 34126 ft | 444 kts | 195° |
| 2026-05-04 18:10 | 34.29922 | -77.44665 | 34122 ft | 444 kts | 196° |
| 2026-05-04 18:11 | 34.23829 | -77.45849 | 34127 ft | 443 kts | 196° |
| 2026-05-04 18:11 | 34.17732 | -77.47041 | 34133 ft | 443 kts | 196° |
| 2026-05-04 18:12 | 34.11642 | -77.48230 | 34133 ft | 443 kts | 196° |
| 2026-05-04 18:12 | 34.05554 | -77.49416 | 34134 ft | 443 kts | 196° |
| 2026-05-04 18:13 | 33.99470 | -77.50599 | 34132 ft | 443 kts | 196° |
| 2026-05-04 18:14 | 33.90385 | -77.52363 | 34127 ft | 443 kts | 196° |
| 2026-05-04 18:14 | 33.84301 | -77.53542 | 34129 ft | 443 kts | 196° |
| 2026-05-04 18:15 | 33.72152 | -77.55890 | 34136 ft | 442 kts | 195° |
| 2026-05-04 18:16 | 33.66078 | -77.57063 | 34139 ft | 442 kts | 195° |
| 2026-05-04 18:16 | 33.60011 | -77.58232 | 34139 ft | 442 kts | 195° |
| 2026-05-04 18:17 | 33.50766 | -77.59141 | 34134 ft | 447 kts | 188° |
| 2026-05-04 18:18 | 33.41445 | -77.59521 | 34143 ft | 446 kts | 188° |
| 2026-05-04 18:18 | 33.35241 | -77.59826 | 34142 ft | 446 kts | 189° |
| 2026-05-04 18:19 | 33.25935 | -77.60321 | 34133 ft | 446 kts | 189° |
| 2026-05-04 18:19 | 33.19774 | -77.60652 | 34141 ft | 446 kts | 189° |
| 2026-05-04 18:20 | 33.13570 | -77.60984 | 34145 ft | 447 kts | 189° |
| 2026-05-04 18:20 | 33.10457 | -77.61151 | 34309 ft | 448 kts | 189° |
| 2026-05-04 18:20 | 33.07354 | -77.61316 | 34616 ft | 446 kts | 189° |
| 2026-05-04 18:21 | 33.04222 | -77.61480 | 34932 ft | 443 kts | 189° |
| 2026-05-04 18:21 | 33.01195 | -77.61639 | 35247 ft | 440 kts | 189° |
| 2026-05-04 18:21 | 32.98140 | -77.61801 | 35495 ft | 440 kts | 190° |
| 2026-05-04 18:21 | 32.95077 | -77.61964 | 35688 ft | 441 kts | 190° |
| 2026-05-04 18:22 | 32.92012 | -77.62128 | 35890 ft | 441 kts | 190° |
| 2026-05-04 18:22 | 32.88950 | -77.62291 | 36150 ft | 440 kts | 190° |
| 2026-05-04 18:22 | 32.85895 | -77.62453 | 36391 ft | 439 kts | 190° |
| 2026-05-04 18:22 | 32.82839 | -77.62615 | 36588 ft | 439 kts | 190° |
| 2026-05-04 18:23 | 32.79787 | -77.62777 | 36784 ft | 439 kts | 190° |
| 2026-05-04 18:23 | 32.76732 | -77.62938 | 37002 ft | 439 kts | 190° |
| 2026-05-04 18:23 | 32.73685 | -77.63099 | 37213 ft | 439 kts | 191° |
| 2026-05-04 18:23 | 32.70633 | -77.63260 | 37382 ft | 439 kts | 191° |
| 2026-05-04 18:24 | 32.67578 | -77.63422 | 37543 ft | 440 kts | 191° |
| 2026-05-04 18:24 | 32.64524 | -77.63583 | 37747 ft | 439 kts | 191° |
| 2026-05-04 18:24 | 32.61473 | -77.63743 | 37965 ft | 438 kts | 191° |
| 2026-05-04 18:24 | 32.58427 | -77.63903 | 38122 ft | 438 kts | 191° |
| 2026-05-04 18:25 | 32.52310 | -77.64227 | 38124 ft | 441 kts | 191° |
| 2026-05-04 18:25 | 32.46179 | -77.64548 | 38142 ft | 440 kts | 191° |
| 2026-05-04 18:26 | 32.40063 | -77.64867 | 38152 ft | 440 kts | 191° |
| 2026-05-04 18:26 | 32.33998 | -77.65185 | 38149 ft | 439 kts | 191° |
| 2026-05-04 18:27 | 32.27893 | -77.65504 | 38101 ft | 439 kts | 192° |
| 2026-05-04 18:27 | 32.21806 | -77.65822 | 38145 ft | 438 kts | 192° |
| 2026-05-04 18:28 | 32.15717 | -77.66140 | 38152 ft | 438 kts | 192° |
| 2026-05-04 18:28 | 32.09629 | -77.66458 | 38154 ft | 438 kts | 192° |
| 2026-05-04 18:29 | 32.03538 | -77.66775 | 38149 ft | 438 kts | 192° |
| 2026-05-04 18:29 | 31.97439 | -77.67091 | 38142 ft | 438 kts | 192° |
| 2026-05-04 18:30 | 31.88295 | -77.67560 | 38154 ft | 439 kts | 192° |
| 2026-05-04 18:31 | 31.82189 | -77.67873 | 38153 ft | 440 kts | 192° |
| 2026-05-04 18:31 | 31.76067 | -77.68186 | 38150 ft | 440 kts | 192° |
| 2026-05-04 18:32 | 31.69986 | -77.68496 | 38150 ft | 440 kts | 192° |
| 2026-05-04 18:32 | 31.63857 | -77.68809 | 38150 ft | 441 kts | 192° |
| 2026-05-04 18:33 | 31.57725 | -77.69121 | 38144 ft | 442 kts | 192° |
| 2026-05-04 18:33 | 31.51580 | -77.69434 | 38148 ft | 442 kts | 192° |
| 2026-05-04 18:34 | 31.46429 | -77.69695 | 38090 ft | 442 kts | 193° |
| 2026-05-04 18:34 | 31.40333 | -77.70004 | 38137 ft | 441 kts | 193° |
| 2026-05-04 18:35 | 31.34188 | -77.70316 | 38145 ft | 441 kts | 193° |
| 2026-05-04 18:35 | 31.28052 | -77.70627 | 38143 ft | 442 kts | 193° |
| 2026-05-04 18:36 | 31.21909 | -77.70937 | 38143 ft | 442 kts | 193° |
| 2026-05-04 18:36 | 31.15772 | -77.71246 | 38146 ft | 441 kts | 193° |
| 2026-05-04 18:37 | 31.09643 | -77.71555 | 38145 ft | 441 kts | 193° |
| 2026-05-04 18:37 | 31.03510 | -77.71864 | 38138 ft | 441 kts | 193° |
| 2026-05-04 18:38 | 30.97375 | -77.72173 | 38143 ft | 441 kts | 193° |
| 2026-05-04 18:38 | 30.91245 | -77.72481 | 38088 ft | 441 kts | 193° |
| 2026-05-04 18:39 | 30.85126 | -77.72787 | 38122 ft | 440 kts | 193° |
| 2026-05-04 18:39 | 30.79007 | -77.73094 | 38135 ft | 440 kts | 193° |
| 2026-05-04 18:40 | 30.72896 | -77.73400 | 38134 ft | 440 kts | 193° |
| 2026-05-04 18:40 | 30.66781 | -77.73706 | 38129 ft | 440 kts | 193° |
| 2026-05-04 18:41 | 30.60705 | -77.74008 | 38130 ft | 439 kts | 192° |
| 2026-05-04 18:41 | 30.54600 | -77.74313 | 38131 ft | 439 kts | 192° |
| 2026-05-04 18:42 | 30.48492 | -77.74618 | 38128 ft | 440 kts | 192° |
| 2026-05-04 18:42 | 30.42378 | -77.74922 | 38129 ft | 440 kts | 192° |
| 2026-05-04 18:43 | 30.36210 | -77.74906 | 38097 ft | 446 kts | 187° |
| 2026-05-04 18:43 | 30.29998 | -77.74519 | 38119 ft | 447 kts | 186° |
| 2026-05-04 18:44 | 30.23782 | -77.74126 | 38130 ft | 447 kts | 187° |
| 2026-05-04 18:44 | 30.17565 | -77.73778 | 38132 ft | 447 kts | 187° |
| 2026-05-04 18:45 | 30.11350 | -77.73452 | 38120 ft | 447 kts | 187° |
| 2026-05-04 18:45 | 30.05129 | -77.73128 | 38118 ft | 447 kts | 187° |
| 2026-05-04 18:46 | 29.98914 | -77.72805 | 38132 ft | 447 kts | 187° |
| 2026-05-04 18:46 | 29.92695 | -77.72481 | 38129 ft | 447 kts | 187° |
| 2026-05-04 18:47 | 29.86481 | -77.72157 | 38117 ft | 447 kts | 187° |
| 2026-05-04 18:47 | 29.80263 | -77.71833 | 38082 ft | 447 kts | 186° |
| 2026-05-04 18:48 | 29.74064 | -77.71510 | 38101 ft | 446 kts | 186° |
| 2026-05-04 18:48 | 29.67868 | -77.71189 | 38115 ft | 445 kts | 186° |
| 2026-05-04 18:49 | 29.61677 | -77.70868 | 38118 ft | 445 kts | 186° |
| 2026-05-04 18:49 | 29.55518 | -77.70549 | 38107 ft | 446 kts | 186° |
| 2026-05-04 18:50 | 29.49334 | -77.70229 | 38103 ft | 445 kts | 186° |
| 2026-05-04 18:50 | 29.43151 | -77.69911 | 38107 ft | 444 kts | 186° |
| 2026-05-04 18:51 | 29.36973 | -77.69594 | 38107 ft | 445 kts | 186° |
| 2026-05-04 18:51 | 29.30786 | -77.69276 | 38103 ft | 445 kts | 186° |
| 2026-05-04 18:52 | 29.24602 | -77.68959 | 38061 ft | 445 kts | 186° |
| 2026-05-04 18:52 | 29.18423 | -77.68642 | 38090 ft | 444 kts | 186° |
| 2026-05-04 18:53 | 29.12249 | -77.68324 | 38096 ft | 444 kts | 186° |
| 2026-05-04 18:53 | 29.06082 | -77.67986 | 38095 ft | 444 kts | 186° |
| 2026-05-04 18:54 | 28.99902 | -77.67640 | 38093 ft | 444 kts | 186° |
| 2026-05-04 18:54 | 28.93734 | -77.67298 | 38084 ft | 443 kts | 186° |
| 2026-05-04 18:55 | 28.87628 | -77.66961 | 38085 ft | 442 kts | 186° |
| 2026-05-04 18:55 | 28.78428 | -77.66456 | 38085 ft | 440 kts | 186° |
| 2026-05-04 18:56 | 28.72310 | -77.66120 | 38084 ft | 439 kts | 186° |
| 2026-05-04 18:56 | 28.66207 | -77.65785 | 38052 ft | 438 kts | 186° |
| 2026-05-04 18:57 | 28.60133 | -77.65453 | 38070 ft | 437 kts | 186° |
| 2026-05-04 18:57 | 28.54062 | -77.65125 | 38076 ft | 436 kts | 186° |
| 2026-05-04 18:58 | 28.48013 | -77.64853 | 38074 ft | 434 kts | 187° |
| 2026-05-04 18:58 | 28.41968 | -77.64595 | 38072 ft | 434 kts | 187° |
| 2026-05-04 18:59 | 28.35934 | -77.64331 | 38065 ft | 433 kts | 187° |
| 2026-05-04 18:59 | 28.29909 | -77.64065 | 38062 ft | 433 kts | 187° |
| 2026-05-04 19:00 | 28.23889 | -77.63799 | 38075 ft | 433 kts | 187° |
| 2026-05-04 19:00 | 28.17864 | -77.63533 | 38077 ft | 433 kts | 187° |
| 2026-05-04 19:01 | 28.11807 | -77.62659 | 38079 ft | 450 kts | 174° |
| 2026-05-04 19:01 | 28.08862 | -77.61481 | 38008 ft | 461 kts | 165° |
| 2026-05-04 19:01 | 28.05945 | -77.59959 | 38079 ft | 462 kts | 164° |
| 2026-05-04 19:02 | 28.00126 | -77.56808 | 38060 ft | 464 kts | 164° |
| 2026-05-04 19:02 | 27.94284 | -77.53659 | 38060 ft | 465 kts | 164° |
| 2026-05-04 19:03 | 27.88418 | -77.50546 | 38057 ft | 466 kts | 165° |
| 2026-05-04 19:03 | 27.82532 | -77.47448 | 38054 ft | 467 kts | 165° |
| 2026-05-04 19:04 | 27.76634 | -77.44351 | 38036 ft | 467 kts | 165° |
| 2026-05-04 19:04 | 27.70742 | -77.41261 | 38038 ft | 468 kts | 165° |
| 2026-05-04 19:05 | 27.64839 | -77.38167 | 38048 ft | 468 kts | 165° |
| 2026-05-04 19:05 | 27.58926 | -77.35072 | 38041 ft | 468 kts | 165° |
| 2026-05-04 19:06 | 27.53013 | -77.31980 | 38040 ft | 468 kts | 165° |
| 2026-05-04 19:06 | 27.47100 | -77.28892 | 37986 ft | 468 kts | 165° |
| 2026-05-04 19:07 | 27.41204 | -77.25815 | 38022 ft | 467 kts | 165° |
| 2026-05-04 19:07 | 27.35350 | -77.22765 | 38014 ft | 466 kts | 165° |
| 2026-05-04 19:08 | 27.29474 | -77.19707 | 38026 ft | 465 kts | 165° |
| 2026-05-04 19:08 | 27.23596 | -77.16651 | 38031 ft | 465 kts | 165° |
| 2026-05-04 19:09 | 27.17731 | -77.13607 | 38031 ft | 464 kts | 165° |
| 2026-05-04 19:09 | 27.11868 | -77.10567 | 38030 ft | 464 kts | 165° |
| 2026-05-04 19:10 | 27.06014 | -77.07534 | 38022 ft | 463 kts | 165° |
| 2026-05-04 19:10 | 27.00160 | -77.04506 | 38022 ft | 463 kts | 165° |
| 2026-05-04 19:11 | 26.94305 | -77.01480 | 38019 ft | 463 kts | 165° |
| 2026-05-04 19:11 | 26.88455 | -76.98460 | 38019 ft | 463 kts | 165° |
| 2026-05-04 19:12 | 26.79674 | -76.93934 | 38004 ft | 463 kts | 165° |
| 2026-05-04 19:13 | 26.73856 | -76.90940 | 38006 ft | 463 kts | 165° |
| 2026-05-04 19:13 | 26.68004 | -76.87932 | 38006 ft | 463 kts | 165° |
| 2026-05-04 19:14 | 26.62143 | -76.84922 | 38002 ft | 464 kts | 165° |
| 2026-05-04 19:14 | 26.56277 | -76.81913 | 38007 ft | 464 kts | 165° |
| 2026-05-04 19:15 | 26.50400 | -76.78901 | 37999 ft | 464 kts | 165° |
| 2026-05-04 19:15 | 26.44519 | -76.75891 | 37998 ft | 465 kts | 165° |
| 2026-05-04 19:16 | 26.38632 | -76.72882 | 37997 ft | 465 kts | 165° |
| 2026-05-04 19:16 | 26.32740 | -76.69873 | 37998 ft | 466 kts | 165° |
| 2026-05-04 19:17 | 26.26878 | -76.66883 | 37994 ft | 466 kts | 165° |
| 2026-05-04 19:17 | 26.20979 | -76.63876 | 37977 ft | 466 kts | 166° |
| 2026-05-04 19:18 | 26.15089 | -76.60878 | 37986 ft | 466 kts | 166° |
| 2026-05-04 19:18 | 26.10151 | -76.58367 | 37993 ft | 466 kts | 166° |
| 2026-05-04 19:19 | 26.03297 | -76.54887 | 37987 ft | 466 kts | 166° |
| 2026-05-04 19:19 | 25.98391 | -76.52398 | 37991 ft | 466 kts | 166° |
| 2026-05-04 19:20 | 25.92495 | -76.49410 | 37946 ft | 466 kts | 166° |
| 2026-05-04 19:20 | 25.86600 | -76.46425 | 37981 ft | 465 kts | 166° |
| 2026-05-04 19:21 | 25.80706 | -76.43445 | 37989 ft | 465 kts | 166° |
| 2026-05-04 19:21 | 25.74815 | -76.40470 | 37989 ft | 465 kts | 166° |
| 2026-05-04 19:22 | 25.68914 | -76.37492 | 37987 ft | 465 kts | 166° |
| 2026-05-04 19:22 | 25.63014 | -76.34519 | 37986 ft | 465 kts | 166° |
| 2026-05-04 19:23 | 25.57155 | -76.31568 | 37984 ft | 465 kts | 166° |
| 2026-05-04 19:23 | 25.51264 | -76.28606 | 37972 ft | 465 kts | 166° |
| 2026-05-04 19:24 | 25.45367 | -76.25643 | 37983 ft | 465 kts | 166° |
| 2026-05-04 19:24 | 25.39465 | -76.22682 | 37993 ft | 466 kts | 166° |
| 2026-05-04 19:25 | 25.33552 | -76.19718 | 37988 ft | 466 kts | 166° |
| 2026-05-04 19:25 | 25.27631 | -76.16753 | 37950 ft | 467 kts | 166° |
| 2026-05-04 19:26 | 25.21717 | -76.13795 | 37974 ft | 467 kts | 166° |
| 2026-05-04 19:26 | 25.15797 | -76.10836 | 37991 ft | 467 kts | 166° |
| 2026-05-04 19:27 | 25.09868 | -76.07878 | 37993 ft | 468 kts | 166° |
| 2026-05-04 19:27 | 25.03934 | -76.04919 | 37992 ft | 468 kts | 166° |
| 2026-05-04 19:28 | 24.97986 | -76.01956 | 37992 ft | 469 kts | 166° |
| 2026-05-04 19:28 | 24.92047 | -75.99000 | 37991 ft | 469 kts | 166° |
| 2026-05-04 19:29 | 24.86133 | -75.96060 | 37996 ft | 469 kts | 166° |
| 2026-05-04 19:29 | 24.80180 | -75.93105 | 37994 ft | 470 kts | 166° |
| 2026-05-04 19:30 | 24.74217 | -75.90147 | 37997 ft | 470 kts | 166° |
| 2026-05-04 19:30 | 24.68255 | -75.87193 | 37998 ft | 470 kts | 166° |
| 2026-05-04 19:31 | 24.62294 | -75.84243 | 37988 ft | 470 kts | 165° |
| 2026-05-04 19:31 | 24.56330 | -75.81294 | 37990 ft | 470 kts | 165° |
| 2026-05-04 19:32 | 24.50368 | -75.78349 | 37978 ft | 470 kts | 165° |
| 2026-05-04 19:32 | 24.44406 | -75.75408 | 37996 ft | 470 kts | 165° |
| 2026-05-04 19:33 | 24.38443 | -75.72469 | 38005 ft | 470 kts | 165° |
| 2026-05-04 19:33 | 24.32509 | -75.69547 | 37983 ft | 471 kts | 165° |
| 2026-05-04 19:34 | 24.26530 | -75.66607 | 37998 ft | 471 kts | 165° |
| 2026-05-04 19:34 | 24.20527 | -75.63658 | 38004 ft | 473 kts | 165° |
| 2026-05-04 19:35 | 24.14505 | -75.60702 | 38006 ft | 475 kts | 165° |
| 2026-05-04 19:35 | 24.08460 | -75.57737 | 38004 ft | 477 kts | 165° |
| 2026-05-04 19:36 | 24.02385 | -75.54759 | 38004 ft | 479 kts | 165° |
| 2026-05-04 19:36 | 23.96298 | -75.51781 | 38002 ft | 480 kts | 165° |
| 2026-05-04 19:37 | 23.90199 | -75.48806 | 38001 ft | 480 kts | 165° |
| 2026-05-04 19:37 | 23.84097 | -75.45831 | 38000 ft | 479 kts | 165° |
| 2026-05-04 19:38 | 23.78006 | -75.42864 | 38003 ft | 479 kts | 165° |
| 2026-05-04 19:38 | 23.71955 | -75.39917 | 37999 ft | 478 kts | 165° |
| 2026-05-04 19:39 | 23.65881 | -75.36964 | 37987 ft | 477 kts | 165° |
| 2026-05-04 19:39 | 23.59821 | -75.34021 | 38001 ft | 477 kts | 165° |
| 2026-05-04 19:40 | 23.53766 | -75.31083 | 38015 ft | 476 kts | 165° |
| 2026-05-04 19:40 | 23.47699 | -75.28142 | 38002 ft | 477 kts | 165° |
| 2026-05-04 19:41 | 23.41629 | -75.25203 | 38012 ft | 477 kts | 165° |
| 2026-05-04 19:41 | 23.35599 | -75.22286 | 37964 ft | 477 kts | 165° |
| 2026-05-04 19:42 | 23.29529 | -75.19351 | 37996 ft | 477 kts | 165° |
| 2026-05-04 19:42 | 23.23447 | -75.16415 | 38006 ft | 478 kts | 165° |
| 2026-05-04 19:43 | 23.17350 | -75.13473 | 38009 ft | 479 kts | 165° |
| 2026-05-04 19:43 | 23.11309 | -75.10319 | 37992 ft | 491 kts | 155° |
| 2026-05-04 19:44 | 23.06092 | -75.05321 | 37982 ft | 512 kts | 134° |
| 2026-05-04 19:44 | 23.01961 | -74.99023 | 37960 ft | 516 kts | 130° |
| 2026-05-04 19:45 | 22.97918 | -74.92589 | 37994 ft | 515 kts | 130° |
| 2026-05-04 19:45 | 22.93841 | -74.86203 | 38005 ft | 515 kts | 130° |
| 2026-05-04 19:46 | 22.89718 | -74.79846 | 37998 ft | 515 kts | 130° |
| 2026-05-04 19:46 | 22.85587 | -74.73515 | 37998 ft | 514 kts | 131° |
| 2026-05-04 19:47 | 22.81455 | -74.67188 | 38000 ft | 514 kts | 131° |
| 2026-05-04 19:47 | 22.77324 | -74.60864 | 38000 ft | 514 kts | 131° |
| 2026-05-04 19:48 | 22.73196 | -74.54551 | 38003 ft | 513 kts | 131° |
| 2026-05-04 19:48 | 22.69063 | -74.48236 | 37998 ft | 513 kts | 131° |
| 2026-05-04 19:49 | 22.64962 | -74.41979 | 37976 ft | 513 kts | 131° |
| 2026-05-04 19:49 | 22.60834 | -74.35686 | 37990 ft | 512 kts | 131° |
| 2026-05-04 19:50 | 22.56712 | -74.29411 | 38002 ft | 511 kts | 131° |
| 2026-05-04 19:50 | 22.52592 | -74.23148 | 38001 ft | 511 kts | 131° |
| 2026-05-04 19:51 | 22.48470 | -74.16889 | 38005 ft | 510 kts | 131° |
| 2026-05-04 19:51 | 22.44354 | -74.10645 | 38002 ft | 510 kts | 131° |
| 2026-05-04 19:52 | 22.40235 | -74.04404 | 37997 ft | 510 kts | 131° |
| 2026-05-04 19:52 | 22.36111 | -73.98165 | 37996 ft | 509 kts | 131° |
| 2026-05-04 19:53 | 22.31992 | -73.91938 | 37995 ft | 509 kts | 131° |
| 2026-05-04 19:53 | 22.27897 | -73.85756 | 37978 ft | 509 kts | 131° |
| 2026-05-04 19:54 | 22.23778 | -73.79544 | 37986 ft | 508 kts | 131° |
| 2026-05-04 19:54 | 22.19662 | -73.73344 | 37995 ft | 508 kts | 131° |
| 2026-05-04 19:55 | 22.15545 | -73.67151 | 37993 ft | 508 kts | 131° |
| 2026-05-04 19:55 | 22.11421 | -73.60953 | 37996 ft | 507 kts | 131° |
| 2026-05-04 19:56 | 22.07306 | -73.54777 | 37993 ft | 507 kts | 131° |
| 2026-05-04 19:56 | 22.03188 | -73.48603 | 37995 ft | 507 kts | 131° |
| 2026-05-04 19:57 | 21.99091 | -73.42467 | 37994 ft | 507 kts | 131° |
| 2026-05-04 19:57 | 21.94964 | -73.36294 | 37994 ft | 507 kts | 131° |
| 2026-05-04 19:58 | 21.90834 | -73.30123 | 37977 ft | 507 kts | 130° |
| 2026-05-04 19:58 | 21.86707 | -73.23963 | 37989 ft | 507 kts | 130° |
| 2026-05-04 19:59 | 21.82584 | -73.17815 | 37992 ft | 506 kts | 130° |
| 2026-05-04 19:59 | 21.78458 | -73.11671 | 37991 ft | 506 kts | 130° |
| 2026-05-04 20:00 | 21.74331 | -73.05533 | 37991 ft | 506 kts | 130° |
| 2026-05-04 20:00 | 21.70201 | -72.99397 | 37995 ft | 506 kts | 131° |
| 2026-05-04 20:01 | 21.66072 | -72.93268 | 37989 ft | 506 kts | 130° |
| 2026-05-04 20:01 | 21.61965 | -72.87180 | 37993 ft | 506 kts | 130° |
| 2026-05-04 20:02 | 21.57830 | -72.81056 | 37991 ft | 506 kts | 130° |
| 2026-05-04 20:02 | 21.53698 | -72.74944 | 37974 ft | 505 kts | 130° |
| 2026-05-04 20:03 | 21.49567 | -72.68840 | 37986 ft | 505 kts | 130° |
| 2026-05-04 20:03 | 21.45433 | -72.62739 | 37989 ft | 505 kts | 130° |
| 2026-05-04 20:04 | 21.41299 | -72.56644 | 37992 ft | 504 kts | 130° |
| 2026-05-04 20:04 | 21.37172 | -72.50566 | 37986 ft | 504 kts | 130° |
| 2026-05-04 20:05 | 21.33074 | -72.44538 | 37987 ft | 503 kts | 130° |
| 2026-05-04 20:05 | 21.28948 | -72.38474 | 37990 ft | 503 kts | 130° |
| 2026-05-04 20:06 | 21.24817 | -72.32410 | 37988 ft | 503 kts | 130° |
| 2026-05-04 20:06 | 21.20690 | -72.26360 | 37986 ft | 502 kts | 130° |
| 2026-05-04 20:07 | 21.16567 | -72.20321 | 37973 ft | 502 kts | 129° |
| 2026-05-04 20:07 | 21.13137 | -72.15302 | 37987 ft | 501 kts | 130° |
| 2026-05-04 20:08 | 21.08348 | -72.08300 | 37985 ft | 501 kts | 130° |
| 2026-05-04 20:08 | 21.04891 | -72.03254 | 37986 ft | 501 kts | 130° |
| 2026-05-04 20:09 | 21.00799 | -71.97284 | 37992 ft | 501 kts | 130° |
| 2026-05-04 20:09 | 20.96679 | -71.91281 | 37988 ft | 500 kts | 130° |
| 2026-05-04 20:10 | 20.92553 | -71.85275 | 37986 ft | 500 kts | 130° |
| 2026-05-04 20:10 | 20.88431 | -71.79281 | 37986 ft | 500 kts | 130° |
| 2026-05-04 20:11 | 20.84304 | -71.73287 | 37990 ft | 500 kts | 130° |
| 2026-05-04 20:11 | 20.80172 | -71.67291 | 37986 ft | 501 kts | 130° |
| 2026-05-04 20:12 | 20.76039 | -71.61300 | 37973 ft | 501 kts | 130° |
| 2026-05-04 20:12 | 20.71930 | -71.55349 | 37984 ft | 501 kts | 130° |
| 2026-05-04 20:13 | 20.67795 | -71.49368 | 37984 ft | 501 kts | 130° |
| 2026-05-04 20:13 | 20.63655 | -71.43385 | 37981 ft | 501 kts | 130° |
| 2026-05-04 20:14 | 20.59511 | -71.37404 | 37978 ft | 501 kts | 130° |
| 2026-05-04 20:14 | 20.55369 | -71.31431 | 37982 ft | 501 kts | 130° |
| 2026-05-04 20:15 | 20.51222 | -71.25455 | 37980 ft | 501 kts | 130° |
| 2026-05-04 20:15 | 20.47074 | -71.19484 | 37979 ft | 501 kts | 130° |
| 2026-05-04 20:16 | 20.42920 | -71.13511 | 37981 ft | 501 kts | 130° |
| 2026-05-04 20:16 | 20.38589 | -71.07712 | 37979 ft | 499 kts | 134° |
| 2026-05-04 20:17 | 20.34039 | -71.02143 | 37974 ft | 498 kts | 135° |
| 2026-05-04 20:17 | 20.29475 | -70.96592 | 37974 ft | 498 kts | 135° |
| 2026-05-04 20:18 | 20.24962 | -70.91044 | 37975 ft | 498 kts | 135° |
| 2026-05-04 20:18 | 20.20440 | -70.85451 | 37968 ft | 498 kts | 134° |
| 2026-05-04 20:19 | 20.15919 | -70.79858 | 37974 ft | 498 kts | 134° |
| 2026-05-04 20:19 | 20.11395 | -70.74270 | 37969 ft | 498 kts | 135° |
| 2026-05-04 20:20 | 20.06867 | -70.68686 | 37964 ft | 498 kts | 135° |
| 2026-05-04 20:20 | 20.02342 | -70.63110 | 37950 ft | 497 kts | 134° |
| 2026-05-04 20:21 | 19.97816 | -70.57539 | 37947 ft | 497 kts | 134° |
| 2026-05-04 20:21 | 19.91035 | -70.49203 | 37944 ft | 496 kts | 134° |
| 2026-05-04 20:22 | 19.86514 | -70.43650 | 37945 ft | 496 kts | 134° |
| 2026-05-04 20:22 | 19.82003 | -70.38116 | 37334 ft | 498 kts | 134° |
| 2026-05-04 20:23 | 19.79735 | -70.35336 | 36680 ft | 497 kts | 134° |
| 2026-05-04 20:23 | 19.77475 | -70.32567 | 36122 ft | 496 kts | 134° |
| 2026-05-04 20:23 | 19.75251 | -70.29842 | 35646 ft | 493 kts | 134° |
| 2026-05-04 20:23 | 19.73013 | -70.27101 | 35136 ft | 491 kts | 134° |
| 2026-05-04 20:24 | 19.70777 | -70.24364 | 34556 ft | 490 kts | 134° |
| 2026-05-04 20:24 | 19.68542 | -70.21631 | 33949 ft | 490 kts | 134° |
| 2026-05-04 20:24 | 19.66306 | -70.18899 | 33227 ft | 491 kts | 133° |
| 2026-05-04 20:24 | 19.64060 | -70.16155 | 32417 ft | 490 kts | 133° |
| 2026-05-04 20:25 | 19.61836 | -70.13438 | 31396 ft | 488 kts | 133° |
| 2026-05-04 20:25 | 19.59601 | -70.10710 | 30133 ft | 493 kts | 133° |
| 2026-05-04 20:25 | 19.57335 | -70.07946 | 28909 ft | 497 kts | 133° |
| 2026-05-04 20:25 | 19.55069 | -70.05182 | 28015 ft | 497 kts | 133° |
| 2026-05-04 20:26 | 19.52795 | -70.02409 | 27057 ft | 498 kts | 133° |
| 2026-05-04 20:26 | 19.50517 | -69.99633 | 26058 ft | 500 kts | 133° |
| 2026-05-04 20:26 | 19.48221 | -69.96836 | 25120 ft | 501 kts | 133° |
| 2026-05-04 20:26 | 19.45947 | -69.94066 | 24353 ft | 497 kts | 133° |
| 2026-05-04 20:27 | 19.43718 | -69.91352 | 23673 ft | 492 kts | 133° |
| 2026-05-04 20:27 | 19.41492 | -69.88642 | 22822 ft | 481 kts | 133° |
| 2026-05-04 20:27 | 19.39322 | -69.86002 | 22065 ft | 470 kts | 133° |
| 2026-05-04 20:27 | 19.37181 | -69.83400 | 21332 ft | 466 kts | 133° |
| 2026-05-04 20:28 | 19.35058 | -69.80822 | 20599 ft | 462 kts | 133° |
| 2026-05-04 20:28 | 19.32954 | -69.78269 | 19880 ft | 459 kts | 133° |
| 2026-05-04 20:28 | 19.30860 | -69.75727 | 19171 ft | 457 kts | 133° |
| 2026-05-04 20:28 | 19.28779 | -69.73202 | 18462 ft | 455 kts | 133° |
| 2026-05-04 20:29 | 19.26693 | -69.70691 | 17675 ft | 453 kts | 134° |
| 2026-05-04 20:29 | 19.24427 | -69.68411 | 17032 ft | 445 kts | 141° |
| 2026-05-04 20:29 | 19.22046 | -69.66354 | 16350 ft | 440 kts | 144° |
| 2026-05-04 20:29 | 19.19642 | -69.64379 | 15700 ft | 435 kts | 144° |
| 2026-05-04 20:30 | 19.17258 | -69.62422 | 15032 ft | 431 kts | 143° |
| 2026-05-04 20:30 | 19.14926 | -69.60473 | 14355 ft | 423 kts | 143° |
| 2026-05-04 20:30 | 19.12677 | -69.58563 | 13637 ft | 408 kts | 142° |
| 2026-05-04 20:30 | 19.10513 | -69.56703 | 12927 ft | 393 kts | 143° |
| 2026-05-04 20:31 | 19.08408 | -69.54885 | 12288 ft | 389 kts | 142° |
| 2026-05-04 20:31 | 19.06349 | -69.53105 | 11666 ft | 387 kts | 142° |
| 2026-05-04 20:31 | 19.04279 | -69.51316 | 11288 ft | 377 kts | 142° |
| 2026-05-04 20:31 | 19.02278 | -69.49586 | 11073 ft | 364 kts | 141° |
| 2026-05-04 20:32 | 19.00352 | -69.47921 | 10916 ft | 352 kts | 141° |
| 2026-05-04 20:32 | 18.98491 | -69.46314 | 10773 ft | 340 kts | 142° |
| 2026-05-04 20:32 | 18.96690 | -69.44760 | 10650 ft | 329 kts | 141° |
| 2026-05-04 20:32 | 18.94943 | -69.43253 | 10514 ft | 318 kts | 142° |
| 2026-05-04 20:33 | 18.93262 | -69.41790 | 10385 ft | 308 kts | 141° |
| 2026-05-04 20:33 | 18.91651 | -69.40359 | 10264 ft | 298 kts | 141° |
| 2026-05-04 20:33 | 18.90090 | -69.38965 | 10127 ft | 290 kts | 140° |
| 2026-05-04 20:33 | 18.88574 | -69.37609 | 10004 ft | 281 kts | 140° |
| 2026-05-04 20:34 | 18.87087 | -69.36281 | 9732 ft | 279 kts | 140° |
| 2026-05-04 20:34 | 18.85609 | -69.34963 | 9445 ft | 277 kts | 140° |
| 2026-05-04 20:34 | 18.84141 | -69.33657 | 9158 ft | 275 kts | 140° |
| 2026-05-04 20:34 | 18.82684 | -69.32358 | 8865 ft | 272 kts | 140° |
| 2026-05-04 20:35 | 18.81241 | -69.31073 | 8601 ft | 270 kts | 140° |
| 2026-05-04 20:35 | 18.79810 | -69.29798 | 8313 ft | 267 kts | 140° |
| 2026-05-04 20:35 | 18.78407 | -69.28550 | 8037 ft | 262 kts | 140° |
| 2026-05-04 20:35 | 18.77014 | -69.27312 | 7753 ft | 261 kts | 140° |
| 2026-05-04 20:36 | 18.75646 | -69.26095 | 7481 ft | 261 kts | 140° |
| 2026-05-04 20:36 | 18.74258 | -69.24863 | 7196 ft | 261 kts | 139° |
| 2026-05-04 20:36 | 18.72860 | -69.23638 | 6898 ft | 262 kts | 140° |
| 2026-05-04 20:36 | 18.71440 | -69.22454 | 6639 ft | 261 kts | 141° |
| 2026-05-04 20:37 | 18.70001 | -69.21270 | 6328 ft | 263 kts | 141° |
| 2026-05-04 20:37 | 18.68563 | -69.20085 | 6037 ft | 262 kts | 141° |
| 2026-05-04 20:37 | 18.67128 | -69.18903 | 5755 ft | 261 kts | 142° |
| 2026-05-04 20:37 | 18.65707 | -69.17729 | 5492 ft | 259 kts | 141° |
| 2026-05-04 20:38 | 18.64290 | -69.16557 | 5217 ft | 258 kts | 141° |
| 2026-05-04 20:38 | 18.62886 | -69.15395 | 4950 ft | 253 kts | 141° |
| 2026-05-04 20:38 | 18.61519 | -69.14263 | 4685 ft | 248 kts | 142° |
| 2026-05-04 20:38 | 18.60165 | -69.13143 | 4464 ft | 245 kts | 142° |
| 2026-05-04 20:39 | 18.58846 | -69.12051 | 4359 ft | 238 kts | 141° |
| 2026-05-04 20:39 | 18.57564 | -69.10989 | 4229 ft | 231 kts | 141° |
| 2026-05-04 20:39 | 18.56318 | -69.09959 | 4124 ft | 224 kts | 141° |
| 2026-05-04 20:39 | 18.55112 | -69.08962 | 4029 ft | 216 kts | 141° |
| 2026-05-04 20:40 | 18.53834 | -69.08200 | 3889 ft | 213 kts | 167° |
| 2026-05-04 20:40 | 18.52380 | -69.08216 | 3777 ft | 207 kts | 184° |
| 2026-05-04 20:40 | 18.50968 | -69.08398 | 3559 ft | 201 kts | 184° |
| 2026-05-04 20:40 | 18.49624 | -69.08575 | 3373 ft | 194 kts | 184° |
| 2026-05-04 20:41 | 18.48328 | -69.08455 | 3129 ft | 185 kts | 152° |
| 2026-05-04 20:41 | 18.47440 | -69.07557 | 2957 ft | 176 kts | 123° |
| 2026-05-04 20:41 | 18.47045 | -69.06361 | 2754 ft | 172 kts | 100° |
| 2026-05-04 20:41 | 18.46895 | -69.05114 | 2595 ft | 169 kts | 99° |
| 2026-05-04 20:42 | 18.46753 | -69.03917 | 2416 ft | 161 kts | 99° |
| 2026-05-04 20:42 | 18.46616 | -69.02742 | 2209 ft | 160 kts | 101° |
| 2026-05-04 20:42 | 18.46482 | -69.01613 | 1965 ft | 153 kts | 98° |
| 2026-05-04 20:42 | 18.46353 | -69.00512 | 1778 ft | 150 kts | 98° |
| 2026-05-04 20:43 | 18.46225 | -68.99420 | 1565 ft | 150 kts | 101° |
| 2026-05-04 20:43 | 18.46096 | -68.98331 | 1362 ft | 150 kts | 100° |
| 2026-05-04 20:43 | 18.45970 | -68.97253 | 1170 ft | 147 kts | 100° |
| 2026-05-04 20:43 | 18.45856 | -68.96183 | 993 ft | 146 kts | 101° |
| 2026-05-04 20:44 | 18.45721 | -68.95068 | 809 ft | 160 kts | 102° |
| 2026-05-04 20:44 | 18.45580 | -68.93909 | 570 ft | 160 kts | 101° |
| 2026-05-04 20:44 | 18.45444 | -68.92771 | 314 ft | 153 kts | 101° |
| 2026-05-04 20:44 | 18.45316 | -68.91707 | 225 ft | 136 kts | 101° |
| 2026-05-04 20:45 | 18.45223 | -68.90933 | 220 ft | 76 kts | 97° |
| 2026-05-04 20:45 | 18.45183 | -68.90581 | 221 ft | 35 kts | 97° |
| 2026-05-04 20:45 | 18.45153 | -68.90335 | 219 ft | 33 kts | 96° |
| 2026-05-04 20:45 | 18.45126 | -68.90103 | 218 ft | 31 kts | 96° |
| 2026-05-04 20:46 | 18.45103 | -68.89897 | 219 ft | 22 kts | 97° |
| 2026-05-04 20:46 | 18.45055 | -68.89806 | 218 ft | 8 kts | 97° |
| 2026-05-04 20:46 | 18.45089 | -68.89809 | 221 ft | 9 kts | 291° |
| 2026-05-04 20:46 | 18.45102 | -68.89894 | 219 ft | 16 kts | 278° |
| 2026-05-04 20:47 | 18.45119 | -68.90046 | 217 ft | 26 kts | 277° |
| 2026-05-04 20:47 | 18.45144 | -68.90261 | 218 ft | 31 kts | 276° |
| 2026-05-04 20:47 | 18.45170 | -68.90465 | 220 ft | 28 kts | 277° |
| 2026-05-04 20:47 | 18.45191 | -68.90661 | 222 ft | 25 kts | 276° |
| 2026-05-04 20:48 | 18.45209 | -68.90835 | 221 ft | 25 kts | 278° |
| 2026-05-04 20:48 | 18.45231 | -68.91016 | 224 ft | 22 kts | 277° |
| 2026-05-04 20:48 | 18.45219 | -68.91133 | 222 ft | 9 kts | 208° |
| 2026-05-04 20:48 | 18.45142 | -68.91149 | 223 ft | 13 kts | 186° |
| 2026-05-04 20:49 | 18.45053 | -68.91160 | 219 ft | 12 kts | 187° |
| 2026-05-04 20:49 | 18.45014 | -68.91200 | 219 ft | 7 kts | 269° |
| 2026-05-04 20:49 | 18.45016 | -68.91242 | 219 ft | 3 kts | 254° |
| 2026-05-04 20:49 | 18.44998 | -68.91258 | 219 ft | 5 kts | 203° |
| 2026-05-04 20:50 | 18.44961 | -68.91264 | 220 ft | 4 kts | 186° |
| 2026-05-04 20:50 | 18.44942 | -68.91266 | 219 ft | 1 kts | 187° |
| 2026-05-04 20:50 | 18.44935 | -68.91267 | 219 ft | 0 kts | 188° |